Time;durP1;ratioP1;P1;durP2;ratioP2;P2;SDS_P1;SDS_P2;PMS_P1;PMS_P2;Temp;Humidity;BMP_temperature;BMP_pressure;BME280_temperature;BME280_humidity;BME280_pressure;Samples;Min_cycle;Max_cycle;Signal;HPM_P1;HPM_P2
2022/08/20 00:01:46;;;;;;;7.37;6.70;;;;;;;;;;5089147;28;20231;-75
2022/08/20 00:04:13;;;;;;;8.23;7.27;;;;;;;;;;5087674;28;20185;-75
2022/08/20 00:06:39;;;;;;;10.77;6.80;;;;;;;;;;5087389;28;20293;-76
2022/08/20 00:09:06;;;;;;;9.33;7.20;;;;;;;;;;5088114;28;20548;-75
2022/08/20 00:11:32;;;;;;;7.87;7.17;;;;;;;;;;5087677;28;20184;-76
2022/08/20 00:14:01;;;;;;;7.60;6.90;;;;;;;;;;5088787;28;20577;-76
2022/08/20 00:16:31;;;;;;;7.53;6.73;;;;;;;;;;5090427;28;20644;-75
2022/08/20 00:18:57;;;;;;;8.00;7.20;;;;;;;;;;5073793;28;20260;-76
2022/08/20 00:21:24;;;;;;;7.60;6.90;;;;;;;;;;5089616;28;20168;-76
2022/08/20 00:23:51;;;;;;;8.60;7.50;;;;;;;;;;5078078;28;20192;-76
2022/08/20 00:26:18;;;;;;;7.87;7.07;;;;;;;;;;5076771;28;20199;-76
2022/08/20 00:28:44;;;;;;;7.37;6.67;;;;;;;;;;5086148;28;20721;-76
2022/08/20 00:31:11;;;;;;;7.97;7.27;;;;;;;;;;5087116;28;20181;-75
2022/08/20 00:33:38;;;;;;;8.20;7.40;;;;;;;;;;5084219;28;20212;-76
2022/08/20 00:36:09;;;;;;;7.80;7.00;;;;;;;;;;5089064;28;20177;-76
2022/08/20 00:38:36;;;;;;;6.80;6.20;;;;;;;;;;5055511;28;20235;-76
2022/08/20 00:41:03;;;;;;;7.83;7.03;;;;;;;;;;5080503;28;20184;-76
2022/08/20 00:43:29;;;;;;;7.50;6.67;;;;;;;;;;5091347;28;20199;-76
2022/08/20 00:45:56;;;;;;;7.70;7.00;;;;;;;;;;5094264;28;20219;-76
2022/08/20 00:48:24;;;;;;;8.07;7.27;;;;;;;;;;5090455;28;20180;-76
2022/08/20 00:50:50;;;;;;;8.77;7.33;;;;;;;;;;5085665;28;20180;-76
2022/08/20 00:53:17;;;;;;;8.60;7.03;;;;;;;;;;5091788;28;20745;-74
2022/08/20 00:55:43;;;;;;;8.80;7.90;;;;;;;;;;5093627;28;20193;-75
2022/08/20 00:58:09;;;;;;;8.13;7.43;;;;;;;;;;5092096;28;20179;-75
2022/08/20 01:00:38;;;;;;;8.27;7.53;;;;;;;;;;5092443;28;20183;-76
2022/08/20 01:03:08;;;;;;;8.37;7.67;;;;;;;;;;5093234;28;20212;-76
2022/08/20 01:05:35;;;;;;;8.73;7.27;;;;;;;;;;5090186;28;20184;-76
2022/08/20 01:08:01;;;;;;;8.90;7.13;;;;;;;;;;5086755;28;20185;-75
2022/08/20 01:10:30;;;;;;;9.67;7.20;;;;;;;;;;5091793;28;20603;-76
2022/08/20 01:12:58;;;;;;;7.90;7.10;;;;;;;;;;5090167;28;20217;-75
2022/08/20 01:15:27;;;;;;;7.40;6.70;;;;;;;;;;5092577;28;20184;-76
2022/08/20 01:17:56;;;;;;;8.33;6.73;;;;;;;;;;5090067;28;20184;-76
2022/08/20 01:20:24;;;;;;;6.80;6.20;;;;;;;;;;5083568;28;20270;-75
2022/08/20 01:26:31;;;;;;;7.80;6.47;;;;;;;;;;5089068;28;20294;-76
2022/08/20 01:29:00;;;;;;;6.77;6.10;;;;;;;;;;5046946;28;20196;-75
2022/08/20 01:31:30;;;;;;;8.03;6.50;;;;;;;;;;5044322;28;20600;-75
2022/08/20 01:33:57;;;;;;;7.80;6.50;;;;;;;;;;5074059;28;20255;-75
2022/08/20 01:36:30;;;;;;;6.93;6.23;;;;;;;;;;5089557;28;20180;-75
2022/08/20 01:38:57;;;;;;;7.60;6.07;;;;;;;;;;5091526;28;20656;-75
2022/08/20 01:41:26;;;;;;;6.70;6.03;;;;;;;;;;5089506;28;20238;-76
2022/08/20 01:43:56;;;;;;;6.90;6.30;;;;;;;;;;5090163;28;20721;-75
2022/08/20 01:46:24;;;;;;;7.80;7.00;;;;;;;;;;5091109;28;20569;-75
2022/08/20 01:48:52;;;;;;;8.07;6.77;;;;;;;;;;5089758;28;20181;-75
2022/08/20 01:51:20;;;;;;;7.30;6.60;;;;;;;;;;5090157;28;20195;-75
2022/08/20 01:53:47;;;;;;;6.97;6.30;;;;;;;;;;5091633;28;20310;-75
2022/08/20 01:56:16;;;;;;;7.50;6.80;;;;;;;;;;5090815;28;20557;-76
2022/08/20 01:58:45;;;;;;;7.40;6.70;;;;;;;;;;5091090;28;20176;-76
2022/08/20 02:01:38;;;;;;;7.50;6.70;;;;;;;;;;5090909;28;20191;-75
2022/08/20 02:04:05;;;;;;;9.20;7.10;;;;;;;;;;5085391;28;20196;-76
2022/08/20 02:06:39;;;;;;;7.73;6.80;;;;;;;;;;5090058;28;20187;-75
2022/08/20 02:09:06;;;;;;;7.30;6.60;;;;;;;;;;5091069;28;20244;-75
2022/08/20 02:11:33;;;;;;;7.43;6.63;;;;;;;;;;5089979;28;20558;-75
2022/08/20 02:13:59;;;;;;;7.20;6.50;;;;;;;;;;5088821;28;20760;-76
2022/08/20 02:16:28;;;;;;;7.03;6.43;;;;;;;;;;5092241;28;20180;-75
2022/08/20 02:18:57;;;;;;;7.57;6.87;;;;;;;;;;5091031;28;20184;-75
2022/08/20 02:21:25;;;;;;;7.70;7.00;;;;;;;;;;5085334;28;20172;-76
2022/08/20 02:23:51;;;;;;;7.20;6.50;;;;;;;;;;5089192;28;20181;-75
2022/08/20 02:26:18;;;;;;;7.00;6.30;;;;;;;;;;5091737;28;20683;-76
2022/08/20 02:28:47;;;;;;;7.63;6.83;;;;;;;;;;5089990;28;20273;-75
2022/08/20 02:31:14;;;;;;;9.77;7.40;;;;;;;;;;5091500;28;20254;-75
2022/08/20 02:33:40;;;;;;;7.63;6.73;;;;;;;;;;5090318;28;20291;-75
2022/08/20 02:36:06;;;;;;;7.73;7.00;;;;;;;;;;5087149;28;20207;-75
2022/08/20 02:38:33;;;;;;;8.23;7.40;;;;;;;;;;5080821;28;20191;-75
2022/08/20 02:41:00;;;;;;;7.93;6.30;;;;;;;;;;5090905;28;20176;-75
2022/08/20 02:43:26;;;;;;;7.60;6.77;;;;;;;;;;5088235;28;20200;-75
2022/08/20 02:45:53;;;;;;;7.40;6.70;;;;;;;;;;5089776;28;20676;-75
2022/08/20 02:48:21;;;;;;;6.97;6.30;;;;;;;;;;5087565;28;20177;-75
2022/08/20 02:51:02;;;;;;;6.27;5.70;;;;;;;;;;5072712;28;20194;-75
2022/08/20 02:53:30;;;;;;;6.40;5.70;;;;;;;;;;5080736;28;20219;-75
2022/08/20 02:55:56;;;;;;;6.30;5.37;;;;;;;;;;5091418;28;20203;-75
2022/08/20 02:58:22;;;;;;;6.60;6.00;;;;;;;;;;5088841;28;20188;-75
2022/08/20 03:00:49;;;;;;;7.63;6.43;;;;;;;;;;5088198;28;20199;-76
2022/08/20 03:03:21;;;;;;;8.30;6.93;;;;;;;;;;5089310;28;20204;-75
2022/08/20 03:05:48;;;;;;;7.07;6.33;;;;;;;;;;5087809;28;20234;-74
2022/08/20 03:08:14;;;;;;;6.87;6.20;;;;;;;;;;5087375;28;20267;-75
2022/08/20 03:10:41;;;;;;;6.57;5.77;;;;;;;;;;5087918;28;20181;-76
2022/08/20 03:13:11;;;;;;;6.57;5.80;;;;;;;;;;5089340;28;20235;-75
2022/08/20 03:15:38;;;;;;;6.23;5.43;;;;;;;;;;5090187;28;20176;-76
2022/08/20 03:18:04;;;;;;;6.27;5.67;;;;;;;;;;5090977;28;20200;-75
2022/08/20 03:20:30;;;;;;;5.40;4.87;;;;;;;;;;5089281;28;20234;-75
2022/08/20 03:22:56;;;;;;;5.37;4.80;;;;;;;;;;5088588;28;20192;-74
2022/08/20 03:25:23;;;;;;;5.27;4.77;;;;;;;;;;5088984;28;20664;-76
2022/08/20 03:27:53;;;;;;;5.50;5.00;;;;;;;;;;5089559;28;20208;-75
2022/08/20 03:30:19;;;;;;;5.90;5.07;;;;;;;;;;5089399;28;20200;-76
2022/08/20 03:32:46;;;;;;;5.43;4.90;;;;;;;;;;5088748;28;20204;-76
2022/08/20 03:35:13;;;;;;;6.67;5.03;;;;;;;;;;5088165;28;20204;-75
2022/08/20 03:37:40;;;;;;;5.50;5.00;;;;;;;;;;5088939;28;20226;-75
2022/08/20 03:40:08;;;;;;;6.47;5.37;;;;;;;;;;5090719;28;20177;-76
2022/08/20 03:42:34;;;;;;;5.93;5.20;;;;;;;;;;5088642;28;20211;-75
2022/08/20 03:45:00;;;;;;;6.27;5.67;;;;;;;;;;5090467;28;20187;-74
2022/08/20 03:47:27;;;;;;;6.57;5.97;;;;;;;;;;5090120;28;20181;-75
2022/08/20 03:49:57;;;;;;;5.90;5.30;;;;;;;;;;5072070;28;20192;-75
2022/08/20 03:52:24;;;;;;;5.47;4.97;;;;;;;;;;5087669;28;20200;-75
2022/08/20 03:54:50;;;;;;;5.50;5.00;;;;;;;;;;5090132;28;20211;-75
2022/08/20 03:57:16;;;;;;;5.20;4.70;;;;;;;;;;5088055;28;21712;-75
2022/08/20 03:59:43;;;;;;;5.80;5.30;;;;;;;;;;5072727;28;20183;-75
2022/08/20 04:02:10;;;;;;;5.87;4.97;;;;;;;;;;5069466;28;20201;-75
2022/08/20 04:04:37;;;;;;;5.20;4.70;;;;;;;;;;5088585;28;20200;-75
2022/08/20 04:07:14;;;;;;;5.87;4.70;;;;;;;;;;5090333;28;20173;-76
2022/08/20 04:09:40;;;;;;;5.60;5.07;;;;;;;;;;5088225;28;20185;-75
2022/08/20 04:12:07;;;;;;;5.00;4.60;;;;;;;;;;5088913;28;20238;-75
2022/08/20 04:14:35;;;;;;;5.30;4.80;;;;;;;;;;5091209;28;20208;-76
2022/08/20 04:17:06;;;;;;;6.50;4.83;;;;;;;;;;5094618;28;20191;-76
2022/08/20 04:19:33;;;;;;;8.40;4.50;;;;;;;;;;5093030;28;20212;-76
2022/08/20 04:21:59;;;;;;;5.20;4.80;;;;;;;;;;5092369;28;20197;-76
2022/08/20 04:24:26;;;;;;;6.10;4.57;;;;;;;;;;5092131;28;20189;-76
2022/08/20 04:26:53;;;;;;;5.37;4.67;;;;;;;;;;5092651;28;20216;-76
2022/08/20 04:29:23;;;;;;;6.40;4.80;;;;;;;;;;5091759;28;20226;-75
2022/08/20 04:31:49;;;;;;;5.07;4.57;;;;;;;;;;5074259;28;20208;-76
2022/08/20 04:34:17;;;;;;;5.30;4.80;;;;;;;;;;5093755;28;20208;-75
2022/08/20 04:36:45;;;;;;;5.07;4.57;;;;;;;;;;5093019;28;20267;-76
2022/08/20 04:39:12;;;;;;;5.47;4.97;;;;;;;;;;5093169;28;20180;-75
2022/08/20 04:41:38;;;;;;;8.67;4.60;;;;;;;;;;5092082;28;20211;-75
2022/08/20 04:44:04;;;;;;;4.67;4.27;;;;;;;;;;5090219;28;20173;-75
2022/08/20 04:46:31;;;;;;;5.47;4.90;;;;;;;;;;5091866;28;20181;-74
2022/08/20 04:48:59;;;;;;;4.60;4.20;;;;;;;;;;5091568;28;20192;-76
2022/08/20 04:51:25;;;;;;;5.07;4.57;;;;;;;;;;5091942;28;20278;-76
2022/08/20 04:53:52;;;;;;;5.20;4.23;;;;;;;;;;5091968;28;20208;-76
2022/08/20 04:56:22;;;;;;;5.03;4.50;;;;;;;;;;5090959;28;20173;-75
2022/08/20 04:58:49;;;;;;;5.37;4.23;;;;;;;;;;5091611;28;20184;-76
2022/08/20 05:01:15;;;;;;;5.23;4.30;;;;;;;;;;5091420;28;20621;-75
2022/08/20 05:03:41;;;;;;;4.50;4.10;;;;;;;;;;5089793;28;20759;-75
2022/08/20 05:06:09;;;;;;;4.63;4.23;;;;;;;;;;5090504;28;20177;-75
2022/08/20 05:08:37;;;;;;;4.37;3.97;;;;;;;;;;5089752;28;20615;-74
2022/08/20 05:11:04;;;;;;;4.50;4.10;;;;;;;;;;5091635;28;20180;-75
2022/08/20 05:13:30;;;;;;;4.87;3.80;;;;;;;;;;5093240;28;20208;-76
2022/08/20 05:15:58;;;;;;;4.33;3.93;;;;;;;;;;5090452;28;20180;-75
2022/08/20 05:18:25;;;;;;;5.20;3.60;;;;;;;;;;5093122;28;20184;-76
2022/08/20 05:20:52;;;;;;;6.17;4.30;;;;;;;;;;5091540;28;20184;-73
2022/08/20 05:23:19;;;;;;;3.70;3.40;;;;;;;;;;5089627;28;20220;-72
2022/08/20 05:25:47;;;;;;;4.30;3.90;;;;;;;;;;5090603;28;20172;-72
2022/08/20 05:28:18;;;;;;;4.17;3.77;;;;;;;;;;5085849;28;20275;-73
2022/08/20 05:30:45;;;;;;;3.83;3.53;;;;;;;;;;5088030;28;20655;-73
2022/08/20 05:33:13;;;;;;;4.17;3.77;;;;;;;;;;5088629;28;20200;-73
2022/08/20 05:35:40;;;;;;;4.80;3.83;;;;;;;;;;5088922;28;20188;-73
2022/08/20 05:38:07;;;;;;;5.77;3.80;;;;;;;;;;5087228;28;20180;-75
2022/08/20 05:40:34;;;;;;;3.83;3.50;;;;;;;;;;5088297;28;20251;-74
2022/08/20 05:43:03;;;;;;;6.93;3.70;;;;;;;;;;5086864;28;20204;-74
2022/08/20 05:45:29;;;;;;;4.80;3.73;;;;;;;;;;5088678;28;20183;-73
2022/08/20 05:47:57;;;;;;;3.60;3.30;;;;;;;;;;5090415;28;20191;-73
2022/08/20 05:50:23;;;;;;;5.87;3.40;;;;;;;;;;5084980;28;20192;-74
2022/08/20 05:52:49;;;;;;;3.70;3.00;;;;;;;;;;5088195;28;20200;-74
2022/08/20 05:55:16;;;;;;;3.70;3.40;;;;;;;;;;5087617;28;20544;-74
2022/08/20 05:57:43;;;;;;;4.23;3.77;;;;;;;;;;5088595;28;20184;-74
2022/08/20 06:00:12;;;;;;;3.93;3.60;;;;;;;;;;5087275;28;20191;-74
2022/08/20 06:05:23;;;;;;;4.43;3.30;;;;;;;;;;5089443;28;20199;-73
2022/08/20 06:07:50;;;;;;;3.50;3.20;;;;;;;;;;5089089;28;20190;-74
2022/08/20 06:10:16;;;;;;;4.07;3.60;;;;;;;;;;5088601;28;21511;-74
2022/08/20 06:12:46;;;;;;;4.37;3.77;;;;;;;;;;5086554;28;20679;-74
2022/08/20 06:15:12;;;;;;;3.77;3.43;;;;;;;;;;5087043;28;20208;-74
2022/08/20 06:17:39;;;;;;;4.00;3.23;;;;;;;;;;5088807;28;20841;-74
2022/08/20 06:20:06;;;;;;;4.60;3.23;;;;;;;;;;5086020;28;20188;-74
2022/08/20 06:22:33;;;;;;;3.30;3.00;;;;;;;;;;5086680;28;20675;-74
2022/08/20 06:24:59;;;;;;;3.60;3.30;;;;;;;;;;5089443;28;20192;-74
2022/08/20 06:27:25;;;;;;;4.07;3.30;;;;;;;;;;5090005;28;20184;-74
2022/08/20 06:29:52;;;;;;;3.67;3.33;;;;;;;;;;5086952;28;20588;-75
2022/08/20 06:32:20;;;;;;;3.70;3.40;;;;;;;;;;5089173;28;20286;-76
2022/08/20 06:34:47;;;;;;;3.67;3.23;;;;;;;;;;5084808;28;20295;-75
2022/08/20 06:37:14;;;;;;;4.63;3.97;;;;;;;;;;5089629;28;20219;-76
2022/08/20 06:39:41;;;;;;;4.27;3.50;;;;;;;;;;5089446;28;20176;-76
2022/08/20 06:42:07;;;;;;;3.10;2.80;;;;;;;;;;5088509;28;20201;-76
2022/08/20 06:44:34;;;;;;;3.10;2.80;;;;;;;;;;5087808;28;20198;-74
2022/08/20 06:47:02;;;;;;;3.20;3.00;;;;;;;;;;5088720;28;20670;-73
2022/08/20 06:49:28;;;;;;;3.27;2.97;;;;;;;;;;5089507;28;20237;-73
2022/08/20 06:51:54;;;;;;;4.17;3.67;;;;;;;;;;5088260;28;20584;-73
2022/08/20 06:54:21;;;;;;;4.40;3.67;;;;;;;;;;5085677;28;20836;-72
2022/08/20 06:56:47;;;;;;;3.53;3.23;;;;;;;;;;5087947;28;20184;-74
2022/08/20 06:59:14;;;;;;;3.63;3.30;;;;;;;;;;5090631;28;20648;-72
2022/08/20 07:01:40;;;;;;;5.47;3.60;;;;;;;;;;5089813;28;20204;-72
2022/08/20 07:04:07;;;;;;;4.30;3.90;;;;;;;;;;5072224;28;20696;-72
2022/08/20 07:06:33;;;;;;;4.60;3.70;;;;;;;;;;5088768;28;20177;-72
2022/08/20 07:08:59;;;;;;;3.70;3.40;;;;;;;;;;5082444;28;20238;-72
2022/08/20 07:11:26;;;;;;;4.07;3.50;;;;;;;;;;5089470;28;20180;-72
2022/08/20 07:13:52;;;;;;;4.40;4.00;;;;;;;;;;5088213;28;20212;-72
2022/08/20 07:16:18;;;;;;;4.67;3.83;;;;;;;;;;5090807;28;20173;-72
2022/08/20 07:18:44;;;;;;;3.90;3.57;;;;;;;;;;5089693;28;20187;-72
2022/08/20 07:21:11;;;;;;;4.47;3.60;;;;;;;;;;5089061;28;20250;-72
2022/08/20 07:23:37;;;;;;;3.60;3.30;;;;;;;;;;5079282;28;20207;-72
2022/08/20 07:26:04;;;;;;;4.27;2.93;;;;;;;;;;5082485;28;20176;-72
2022/08/20 07:28:33;;;;;;;3.30;3.00;;;;;;;;;;5088643;28;20213;-72
2022/08/20 07:33:44;;;;;;;4.07;3.00;;;;;;;;;;5088454;28;20216;-75
2022/08/20 07:36:11;;;;;;;3.33;3.00;;;;;;;;;;5085502;28;20177;-72
2022/08/20 07:38:37;;;;;;;2.50;2.30;;;;;;;;;;5085146;28;20176;-72
2022/08/20 07:41:06;;;;;;;3.73;2.23;;;;;;;;;;5084113;28;20652;-75
2022/08/20 07:43:33;;;;;;;2.63;2.20;;;;;;;;;;5087296;28;20208;-73
2022/08/20 07:46:00;;;;;;;2.40;2.20;;;;;;;;;;5087409;28;20195;-72
2022/08/20 07:48:28;;;;;;;2.07;1.93;;;;;;;;;;5091613;28;20180;-72
2022/08/20 07:50:54;;;;;;;2.40;2.20;;;;;;;;;;5088980;28;20663;-72
2022/08/20 07:53:21;;;;;;;2.80;2.50;;;;;;;;;;5091970;28;20200;-72
2022/08/20 07:55:47;;;;;;;2.63;2.43;;;;;;;;;;5092392;28;20184;-72
2022/08/20 07:58:15;;;;;;;2.70;2.40;;;;;;;;;;5093164;28;20200;-72
2022/08/20 08:00:41;;;;;;;3.00;2.40;;;;;;;;;;5090315;28;20192;-72
2022/08/20 08:03:08;;;;;;;3.20;2.53;;;;;;;;;;5087728;28;20200;-72
2022/08/20 08:05:37;;;;;;;2.87;2.57;;;;;;;;;;5088143;28;20180;-72
2022/08/20 08:08:04;;;;;;;2.90;2.70;;;;;;;;;;5089688;28;20213;-72
2022/08/20 08:10:30;;;;;;;3.20;2.90;;;;;;;;;;5085410;28;20199;-72
2022/08/20 08:12:58;;;;;;;3.63;2.70;;;;;;;;;;5087039;28;20223;-72
2022/08/20 08:15:27;;;;;;;3.20;2.90;;;;;;;;;;5092588;28;20313;-72
2022/08/20 08:17:55;;;;;;;3.20;2.60;;;;;;;;;;5090984;28;20238;-72
2022/08/20 08:20:22;;;;;;;3.43;3.13;;;;;;;;;;5089663;28;20252;-72
2022/08/20 08:22:48;;;;;;;3.30;3.00;;;;;;;;;;5089683;28;20200;-72
2022/08/20 08:25:15;;;;;;;3.00;2.80;;;;;;;;;;5090694;28;20700;-73
2022/08/20 08:27:42;;;;;;;3.20;2.90;;;;;;;;;;5092225;28;20181;-74
2022/08/20 08:30:09;;;;;;;2.87;2.67;;;;;;;;;;5089726;28;20345;-72
2022/08/20 08:33:26;;;;;;;3.57;3.00;;;;;;;;;;5089996;28;20201;-71
2022/08/20 08:35:30;;;;;;;3.10;2.90;;;;;;;;;;5089553;28;20235;-71
2022/08/20 08:37:57;;;;;;;3.33;3.03;;;;;;;;;;5086133;28;20343;-72
2022/08/20 08:40:23;;;;;;;3.30;3.00;;;;;;;;;;5085301;28;20186;-78
2022/08/20 08:42:54;;;;;;;4.13;3.17;;;;;;;;;;5089794;28;20675;-73
2022/08/20 08:45:21;;;;;;;3.83;3.53;;;;;;;;;;5087310;28;20649;-73
2022/08/20 08:47:47;;;;;;;3.53;3.23;;;;;;;;;;5088750;28;20223;-73
2022/08/20 08:50:24;;;;;;;3.70;3.40;;;;;;;;;;5088029;28;20176;-73
2022/08/20 08:52:59;;;;;;;3.87;3.53;;;;;;;;;;5087929;28;20769;-73
2022/08/20 08:55:26;;;;;;;3.40;3.10;;;;;;;;;;5085313;28;20211;-73
2022/08/20 08:57:54;;;;;;;2.93;2.73;;;;;;;;;;5075306;28;20184;-73
2022/08/20 09:00:22;;;;;;;3.53;3.23;;;;;;;;;;5089340;28;20644;-73
2022/08/20 09:02:57;;;;;;;3.60;3.07;;;;;;;;;;5091578;28;20199;-74
2022/08/20 09:05:26;;;;;;;3.40;2.90;;;;;;;;;;5084399;28;20577;-73
2022/08/20 09:07:53;;;;;;;3.37;3.07;;;;;;;;;;5089541;28;20192;-73
2022/08/20 09:10:19;;;;;;;3.53;3.23;;;;;;;;;;5084715;28;20192;-73
2022/08/20 09:12:45;;;;;;;3.20;2.90;;;;;;;;;;5087429;28;20595;-74
2022/08/20 09:15:11;;;;;;;3.07;2.87;;;;;;;;;;5090311;28;20213;-73
2022/08/20 09:17:38;;;;;;;3.10;2.80;;;;;;;;;;5092977;28;20252;-74
2022/08/20 09:20:04;;;;;;;3.23;2.70;;;;;;;;;;5090523;28;20660;-74
2022/08/20 09:22:32;;;;;;;3.93;2.80;;;;;;;;;;5087721;28;20220;-73
2022/08/20 09:24:59;;;;;;;3.50;2.80;;;;;;;;;;5082346;28;20189;-73
2022/08/20 09:27:25;;;;;;;3.20;3.00;;;;;;;;;;5093389;28;20234;-73
2022/08/20 09:29:52;;;;;;;4.30;3.00;;;;;;;;;;5089721;28;20185;-73
2022/08/20 09:32:22;;;;;;;3.43;3.13;;;;;;;;;;5087629;28;20352;-74
2022/08/20 09:34:56;;;;;;;3.20;2.90;;;;;;;;;;5072294;28;20293;-73
2022/08/20 09:37:24;;;;;;;3.20;2.90;;;;;;;;;;5090355;28;20609;-74
2022/08/20 09:39:50;;;;;;;3.30;3.00;;;;;;;;;;5088332;28;20289;-74
2022/08/20 09:42:22;;;;;;;3.80;3.40;;;;;;;;;;5090553;28;20703;-74
2022/08/20 09:44:48;;;;;;;3.90;3.50;;;;;;;;;;5073422;28;20224;-74
2022/08/20 09:47:16;;;;;;;4.20;3.77;;;;;;;;;;5090295;28;20184;-74
2022/08/20 09:49:42;;;;;;;3.60;3.30;;;;;;;;;;5088296;28;20191;-74
2022/08/20 09:52:17;;;;;;;3.73;3.30;;;;;;;;;;5088264;28;20201;-74
2022/08/20 09:54:43;;;;;;;5.53;3.80;;;;;;;;;;5088740;28;20219;-75
2022/08/20 09:57:11;;;;;;;3.87;3.50;;;;;;;;;;5091109;28;20598;-73
2022/08/20 09:59:37;;;;;;;4.53;3.40;;;;;;;;;;5089634;28;20663;-73
2022/08/20 10:02:03;;;;;;;3.80;3.50;;;;;;;;;;5087096;28;20192;-72
2022/08/20 10:04:30;;;;;;;4.00;3.67;;;;;;;;;;5089680;28;20209;-72
2022/08/20 10:06:56;;;;;;;4.00;3.60;;;;;;;;;;5091124;28;20188;-72
2022/08/20 10:09:22;;;;;;;3.90;3.60;;;;;;;;;;5083308;28;20275;-72
2022/08/20 10:11:49;;;;;;;3.57;3.27;;;;;;;;;;5088115;28;20210;-72
2022/08/20 10:14:15;;;;;;;3.27;2.97;;;;;;;;;;5089510;28;20193;-75
2022/08/20 10:16:41;;;;;;;3.77;3.47;;;;;;;;;;5072896;28;20697;-71
2022/08/20 10:19:07;;;;;;;4.50;4.10;;;;;;;;;;5091871;28;20200;-73
2022/08/20 10:21:34;;;;;;;5.13;4.60;;;;;;;;;;5089925;28;20176;-73
2022/08/20 10:24:00;;;;;;;5.30;4.77;;;;;;;;;;5089633;28;20176;-73
2022/08/20 10:26:26;;;;;;;5.37;4.20;;;;;;;;;;5089980;28;20632;-73
2022/08/20 10:28:52;;;;;;;6.03;5.43;;;;;;;;;;5090502;28;20275;-73
2022/08/20 10:31:19;;;;;;;5.20;4.70;;;;;;;;;;5090690;28;20181;-74
2022/08/20 10:33:45;;;;;;;5.00;4.53;;;;;;;;;;5088672;28;20215;-75
2022/08/20 10:36:16;;;;;;;5.50;5.00;;;;;;;;;;5085093;28;20185;-72
2022/08/20 10:38:42;;;;;;;5.07;4.63;;;;;;;;;;5089713;28;20902;-73
2022/08/20 10:41:09;;;;;;;5.20;4.70;;;;;;;;;;5085182;28;20191;-73
2022/08/20 10:43:35;;;;;;;4.53;3.93;;;;;;;;;;5089084;28;20687;-73
2022/08/20 10:46:01;;;;;;;5.60;4.87;;;;;;;;;;5086083;28;20620;-74
2022/08/20 10:48:28;;;;;;;7.47;6.30;;;;;;;;;;5084277;28;20192;-74
2022/08/20 10:50:54;;;;;;;10.73;9.17;;;;;;;;;;5090743;28;20719;-73
2022/08/20 10:53:20;;;;;;;13.63;11.60;;;;;;;;;;5096023;28;20228;-74
2022/08/20 10:55:46;;;;;;;5.83;5.33;;;;;;;;;;5107362;28;20216;-75
2022/08/20 10:58:12;;;;;;;4.80;4.03;;;;;;;;;;5083842;28;20773;-71
2022/08/20 11:00:39;;;;;;;3.20;2.90;;;;;;;;;;5083744;28;20195;-73
2022/08/20 11:03:05;;;;;;;9.17;8.23;;;;;;;;;;5084006;28;20199;-72
2022/08/20 11:05:32;;;;;;;3.60;3.30;;;;;;;;;;5086853;28;20179;-73
2022/08/20 11:07:58;;;;;;;4.10;3.80;;;;;;;;;;5091172;28;20278;-73
2022/08/20 11:10:26;;;;;;;4.57;4.17;;;;;;;;;;5083304;28;20589;-73
2022/08/20 11:12:52;;;;;;;4.73;4.33;;;;;;;;;;5084392;28;20223;-72
2022/08/20 11:15:18;;;;;;;2.57;2.37;;;;;;;;;;5082367;28;20329;-74
2022/08/20 11:17:45;;;;;;;2.57;2.37;;;;;;;;;;5091134;28;20701;-74
2022/08/20 11:20:13;;;;;;;2.50;2.30;;;;;;;;;;5093521;28;20710;-77
2022/08/20 11:22:39;;;;;;;2.43;2.23;;;;;;;;;;5083311;28;20223;-74
2022/08/20 11:25:05;;;;;;;2.50;2.30;;;;;;;;;;5087188;28;20184;-74
2022/08/20 11:27:37;;;;;;;2.00;1.83;;;;;;;;;;5090774;28;20192;-74
2022/08/20 11:30:05;;;;;;;2.20;2.00;;;;;;;;;;5093499;28;20190;-74
2022/08/20 11:32:31;;;;;;;2.33;2.13;;;;;;;;;;5083828;28;20204;-73
2022/08/20 11:34:57;;;;;;;1.90;1.80;;;;;;;;;;5071272;28;20286;-76
2022/08/20 11:37:24;;;;;;;2.00;1.80;;;;;;;;;;5091596;28;20176;-74
2022/08/20 11:39:50;;;;;;;1.60;1.50;;;;;;;;;;5088913;28;20179;-73
2022/08/20 11:42:16;;;;;;;2.43;1.80;;;;;;;;;;5088966;28;20203;-75
2022/08/20 11:44:42;;;;;;;1.53;1.40;;;;;;;;;;5087526;28;20215;-74
2022/08/20 11:47:10;;;;;;;1.30;1.17;;;;;;;;;;5095345;28;20177;-73
2022/08/20 11:49:36;;;;;;;1.40;1.30;;;;;;;;;;5086391;28;20185;-75
2022/08/20 11:52:03;;;;;;;1.63;1.40;;;;;;;;;;5082385;28;20289;-75
2022/08/20 11:54:31;;;;;;;1.53;1.23;;;;;;;;;;5061542;28;20305;-76
2022/08/20 11:56:58;;;;;;;3.70;1.40;;;;;;;;;;5090909;28;20189;-75
2022/08/20 11:59:27;;;;;;;1.53;1.43;;;;;;;;;;5072195;28;20762;-79
2022/08/20 12:01:54;;;;;;;1.47;1.37;;;;;;;;;;5088434;28;20212;-76
2022/08/20 12:04:20;;;;;;;2.00;1.07;;;;;;;;;;5083516;28;20187;-75
2022/08/20 12:06:47;;;;;;;1.37;1.27;;;;;;;;;;5094122;28;20184;-75
2022/08/20 12:09:13;;;;;;;1.53;1.20;;;;;;;;;;5083284;28;20179;-76
2022/08/20 12:11:39;;;;;;;2.20;1.20;;;;;;;;;;5083176;28;20188;-76
2022/08/20 12:14:05;;;;;;;1.30;1.20;;;;;;;;;;5087942;28;20242;-75
2022/08/20 12:16:31;;;;;;;1.23;1.13;;;;;;;;;;5087867;28;20189;-75
2022/08/20 12:18:58;;;;;;;1.20;1.10;;;;;;;;;;5084775;28;20186;-75
2022/08/20 12:21:24;;;;;;;1.33;1.20;;;;;;;;;;5086634;28;20187;-75
2022/08/20 12:23:50;;;;;;;1.33;1.10;;;;;;;;;;5083993;28;20199;-75
2022/08/20 12:26:16;;;;;;;1.07;1.07;;;;;;;;;;5089740;28;20185;-75
2022/08/20 12:28:43;;;;;;;1.90;1.10;;;;;;;;;;5086218;28;20273;-75
2022/08/20 12:31:09;;;;;;;1.00;1.00;;;;;;;;;;5087511;28;20191;-74
2022/08/20 12:33:35;;;;;;;1.30;1.20;;;;;;;;;;5087891;28;20215;-74
2022/08/20 12:36:01;;;;;;;1.20;1.10;;;;;;;;;;5093348;28;20199;-74
2022/08/20 12:38:28;;;;;;;1.10;1.00;;;;;;;;;;5091558;28;20233;-75
2022/08/20 12:40:54;;;;;;;1.30;1.20;;;;;;;;;;5088255;28;20197;-75
2022/08/20 12:43:20;;;;;;;1.07;1.00;;;;;;;;;;5086000;28;20268;-75
2022/08/20 12:45:46;;;;;;;0.93;0.93;;;;;;;;;;5087038;28;20192;-75
2022/08/20 12:48:13;;;;;;;1.90;1.00;;;;;;;;;;5091833;28;20304;-75
2022/08/20 12:50:40;;;;;;;0.90;0.83;;;;;;;;;;5083223;28;20172;-75
2022/08/20 12:53:07;;;;;;;0.87;0.80;;;;;;;;;;5088450;28;20225;-75
2022/08/20 12:55:34;;;;;;;1.87;0.80;;;;;;;;;;5085251;28;20235;-75
2022/08/20 12:58:01;;;;;;;0.87;0.87;;;;;;;;;;5085104;28;20192;-75
2022/08/20 13:00:29;;;;;;;0.90;0.90;;;;;;;;;;5086338;28;20650;-74
2022/08/20 13:02:56;;;;;;;0.87;0.87;;;;;;;;;;5086698;28;20230;-74
2022/08/20 13:05:23;;;;;;;0.80;0.80;;;;;;;;;;5091292;28;20611;-75
2022/08/20 13:07:50;;;;;;;1.13;0.80;;;;;;;;;;5092846;28;20191;-75
2022/08/20 13:10:17;;;;;;;1.43;0.83;;;;;;;;;;5089839;28;20236;-75
2022/08/20 13:12:44;;;;;;;0.73;0.73;;;;;;;;;;5086216;28;20324;-75
2022/08/20 13:15:10;;;;;;;0.70;0.60;;;;;;;;;;5088212;28;20251;-76
2022/08/20 13:17:36;;;;;;;1.20;0.87;;;;;;;;;;5088585;28;20196;-75
2022/08/20 13:20:04;;;;;;;1.47;0.60;;;;;;;;;;5088443;28;20185;-77
2022/08/20 13:22:30;;;;;;;2.07;0.87;;;;;;;;;;5086131;28;20201;-75
2022/08/20 13:24:56;;;;;;;1.17;0.80;;;;;;;;;;5089313;28;20194;-76
2022/08/20 13:27:23;;;;;;;1.17;0.90;;;;;;;;;;5086761;28;20194;-77
2022/08/20 13:29:51;;;;;;;1.07;0.73;;;;;;;;;;5084745;28;20204;-76
2022/08/20 13:32:17;;;;;;;1.83;0.90;;;;;;;;;;5086111;28;20207;-74
2022/08/20 13:34:44;;;;;;;1.40;0.90;;;;;;;;;;5090480;28;20247;-73
2022/08/20 13:37:14;;;;;;;2.87;1.00;;;;;;;;;;5089572;28;20184;-76
2022/08/20 13:39:41;;;;;;;1.37;0.90;;;;;;;;;;5086717;28;20179;-76
2022/08/20 13:42:07;;;;;;;1.90;1.00;;;;;;;;;;5087197;28;20211;-79
2022/08/20 13:44:34;;;;;;;1.30;1.20;;;;;;;;;;5086884;28;20196;-75
2022/08/20 13:47:00;;;;;;;1.50;1.40;;;;;;;;;;5082045;28;20190;-75
2022/08/20 13:49:26;;;;;;;1.50;1.37;;;;;;;;;;5087455;28;20189;-75
2022/08/20 13:51:52;;;;;;;1.40;1.30;;;;;;;;;;5084434;28;20781;-74
2022/08/20 13:54:18;;;;;;;2.00;1.33;;;;;;;;;;5085618;28;20211;-74
2022/08/20 13:56:45;;;;;;;1.87;1.40;;;;;;;;;;5068694;28;20189;-77
2022/08/20 13:59:11;;;;;;;2.10;1.30;;;;;;;;;;5084859;28;20721;-76
2022/08/20 14:01:37;;;;;;;1.43;1.30;;;;;;;;;;5085684;28;20181;-75
2022/08/20 14:04:03;;;;;;;1.40;1.30;;;;;;;;;;5084771;28;20283;-76
2022/08/20 14:06:30;;;;;;;1.77;1.30;;;;;;;;;;5084688;28;20596;-76
2022/08/20 14:08:56;;;;;;;1.30;1.20;;;;;;;;;;5083335;28;20231;-77
2022/08/20 14:11:22;;;;;;;1.83;1.40;;;;;;;;;;5077080;28;20202;-78
2022/08/20 14:13:48;;;;;;;3.53;2.10;;;;;;;;;;5084497;28;20234;-77
2022/08/20 14:16:15;;;;;;;2.20;2.00;;;;;;;;;;5086471;28;20525;-77
2022/08/20 14:18:41;;;;;;;2.35;1.92;;;;;;;;;;5084177;28;20674;-77
2022/08/20 14:21:07;;;;;;;2.00;1.80;;;;;;;;;;5080603;28;20198;-77
2022/08/20 14:23:33;;;;;;;2.00;1.80;;;;;;;;;;5085785;28;20321;-77
2022/08/20 14:25:59;;;;;;;1.90;1.80;;;;;;;;;;5085706;28;20190;-78
2022/08/20 14:28:26;;;;;;;3.75;2.00;;;;;;;;;;5086356;28;20896;-78
2022/08/20 14:30:52;;;;;;;1.98;1.83;;;;;;;;;;5083347;28;20183;-77
2022/08/20 14:33:18;;;;;;;2.10;2.00;;;;;;;;;;5087869;28;20297;-78
2022/08/20 14:35:45;;;;;;;3.90;2.28;;;;;;;;;;5082425;28;20747;-77
2022/08/20 14:38:11;;;;;;;2.50;1.80;;;;;;;;;;5084229;28;20228;-78
2022/08/20 14:40:37;;;;;;;3.22;2.40;;;;;;;;;;5083339;28;20587;-77
2022/08/20 14:43:03;;;;;;;5.03;2.33;;;;;;;;;;5082828;28;20191;-78
2022/08/20 14:45:29;;;;;;;3.08;1.90;;;;;;;;;;5077310;28;20241;-77
2022/08/20 14:47:57;;;;;;;1.90;1.70;;;;;;;;;;5084561;28;20187;-78
2022/08/20 14:50:25;;;;;;;3.53;2.22;;;;;;;;;;5084244;28;20180;-78
2022/08/20 14:52:51;;;;;;;2.05;1.90;;;;;;;;;;5083762;28;20203;-77